Time;durP1;ratioP1;P1;durP2;ratioP2;P2;SDS_P1;SDS_P2;PMS_P1;PMS_P2;Temp;Humidity;BMP_temperature;BMP_pressure;BME280_temperature;BME280_humidity;BME280_pressure;Samples;Min_cycle;Max_cycle;Signal;HPM_P1;HPM_P2
2023/10/20 00:00:06;;;;;;;10.00;7.80;;;14.60;99.90;;;;;;7297991;32;20105;-56
2023/10/20 00:04:08;;;;;;;10.00;7.22;;;14.70;99.90;;;;;;7301048;32;20123;-56
2023/10/20 00:08:09;;;;;;;8.70;6.72;;;14.70;99.90;;;;;;7295919;32;20179;-56
2023/10/20 00:12:12;;;;;;;10.00;7.03;;;14.70;99.90;;;;;;7301749;32;20122;-56
2023/10/20 00:16:14;;;;;;;8.65;7.57;;;14.70;99.90;;;;;;7294700;32;20680;-56
2023/10/20 00:20:15;;;;;;;10.07;7.70;;;14.70;99.90;;;;;;7297550;32;20185;-56
2023/10/20 00:24:17;;;;;;;12.68;8.18;;;14.80;99.90;;;;;;7298202;32;20165;-56
2023/10/20 00:28:19;;;;;;;11.88;8.32;;;14.80;99.90;;;;;;7302288;32;20097;-56
2023/10/20 00:32:21;;;;;;;10.75;7.90;;;14.70;99.90;;;;;;7302540;32;20565;-57
2023/10/20 00:36:22;;;;;;;11.45;8.10;;;14.70;99.90;;;;;;7296483;32;20108;-56
2023/10/20 00:40:25;;;;;;;9.70;7.65;;;14.70;99.90;;;;;;7302157;32;20123;-55
2023/10/20 00:44:28;;;;;;;13.88;8.35;;;14.70;99.90;;;;;;7301554;32;20626;-56
2023/10/20 00:48:31;;;;;;;10.88;7.50;;;14.70;99.90;;;;;;7300647;32;20539;-58
2023/10/20 00:52:35;;;;;;;9.63;7.28;;;14.70;99.90;;;;;;7298875;32;20130;-57
2023/10/20 00:56:37;;;;;;;12.30;7.72;;;14.70;99.90;;;;;;7299164;32;20100;-56
2023/10/20 01:00:39;;;;;;;9.13;7.10;;;14.70;99.90;;;;;;7299481;32;20591;-56
2023/10/20 01:04:41;;;;;;;9.73;7.80;;;14.90;99.90;;;;;;7300225;32;20120;-56
2023/10/20 01:08:42;;;;;;;8.95;7.55;;;14.80;99.90;;;;;;7300185;32;20456;-55
2023/10/20 01:12:44;;;;;;;9.65;7.55;;;14.80;99.90;;;;;;7298367;32;20487;-56
2023/10/20 01:16:47;;;;;;;12.82;8.23;;;14.80;99.90;;;;;;7295442;32;20129;-56
2023/10/20 01:20:48;;;;;;;15.18;8.85;;;14.80;99.90;;;;;;7301002;32;20235;-56
2023/10/20 01:24:50;;;;;;;10.73;7.57;;;14.80;99.90;;;;;;7297983;32;20599;-56
2023/10/20 01:28:52;;;;;;;12.20;7.97;;;14.80;99.90;;;;;;7297753;32;20126;-56
2023/10/20 01:32:54;;;;;;;10.63;7.85;;;14.80;99.90;;;;;;7291466;32;20262;-56
2023/10/20 01:36:55;;;;;;;10.13;7.78;;;14.80;99.90;;;;;;7297678;32;20642;-56
2023/10/20 01:40:57;;;;;;;10.50;7.28;;;14.80;99.90;;;;;;7300064;32;20188;-56
2023/10/20 01:44:59;;;;;;;6.82;6.12;;;14.80;99.90;;;;;;7296140;32;20133;-56
2023/10/20 01:49:00;;;;;;;8.75;6.03;;;14.90;99.90;;;;;;7295180;32;20678;-56
2023/10/20 01:53:03;;;;;;;6.45;5.43;;;14.80;99.90;;;;;;7300690;32;20474;-55
2023/10/20 01:57:05;;;;;;;6.45;5.37;;;14.90;99.90;;;;;;7297238;32;20161;-56
2023/10/20 02:01:10;;;;;;;6.10;4.93;;;14.90;99.90;;;;;;7305525;32;20224;-55
2023/10/20 02:05:13;;;;;;;7.07;5.20;;;15.00;99.90;;;;;;7291643;32;20123;-58
2023/10/20 02:09:15;;;;;;;7.35;4.70;;;15.00;99.90;;;;;;7306974;32;20118;-56
2023/10/20 02:13:17;;;;;;;4.53;3.87;;;15.00;99.90;;;;;;7305693;32;20580;-56
2023/10/20 02:17:19;;;;;;;5.72;4.07;;;15.00;99.90;;;;;;7296107;32;20183;-57
2023/10/20 02:21:21;;;;;;;5.15;4.30;;;14.90;99.90;;;;;;7303248;32;20127;-56
2023/10/20 02:25:23;;;;;;;4.47;3.65;;;14.90;99.90;;;;;;7301359;32;20123;-56
2023/10/20 02:29:25;;;;;;;5.20;3.80;;;15.00;99.90;;;;;;7302390;32;20146;-56
2023/10/20 02:33:27;;;;;;;6.43;4.25;;;15.10;99.90;;;;;;7305382;32;20108;-56
2023/10/20 02:37:29;;;;;;;6.43;3.95;;;14.90;99.90;;;;;;7301449;32;20182;-57
2023/10/20 02:41:30;;;;;;;4.12;2.95;;;15.00;99.90;;;;;;7299536;32;20120;-56
2023/10/20 02:45:32;;;;;;;3.60;3.22;;;14.90;99.90;;;;;;7299410;32;20208;-57
2023/10/20 02:49:35;;;;;;;5.00;3.20;;;14.90;99.90;;;;;;7306260;32;20545;-56
2023/10/20 02:53:39;;;;;;;6.18;4.00;;;14.80;99.90;;;;;;7303602;32;20218;-57
2023/10/20 02:57:41;;;;;;;7.12;3.80;;;14.80;99.90;;;;;;7298429;32;20215;-55
2023/10/20 03:01:43;;;;;;;4.62;3.60;;;14.90;99.90;;;;;;7297730;32;20120;-56
2023/10/20 03:05:45;;;;;;;4.55;3.17;;;14.90;99.90;;;;;;7300680;32;20645;-55
2023/10/20 03:09:47;;;;;;;4.62;3.67;;;14.90;99.90;;;;;;7301546;32;20104;-57
2023/10/20 03:13:49;;;;;;;4.97;3.05;;;14.90;99.90;;;;;;7299807;32;23246;-55
2023/10/20 03:17:51;;;;;;;4.87;2.42;;;14.90;99.90;;;;;;7295279;32;20214;-57
2023/10/20 03:21:53;;;;;;;2.95;2.08;;;14.90;99.90;;;;;;7301915;32;20493;-56
2023/10/20 03:25:55;;;;;;;2.55;1.80;;;15.00;99.90;;;;;;7296083;32;20096;-56
2023/10/20 03:29:57;;;;;;;3.70;1.75;;;15.00;99.90;;;;;;7296793;32;20214;-58
2023/10/20 03:33:58;;;;;;;2.78;1.77;;;15.00;99.90;;;;;;7303686;32;20144;-56
2023/10/20 03:38:03;;;;;;;2.30;1.67;;;15.00;99.90;;;;;;7301053;32;20166;-55
2023/10/20 03:42:07;;;;;;;3.40;1.60;;;15.00;99.90;;;;;;7300647;32;20303;-56
2023/10/20 03:46:10;;;;;;;2.22;1.58;;;15.00;99.90;;;;;;7296583;32;20186;-56
2023/10/20 03:50:16;;;;;;;1.73;1.50;;;15.10;99.90;;;;;;7301505;32;20107;-57
2023/10/20 03:54:19;;;;;;;1.87;1.70;;;15.10;99.90;;;;;;7296138;32;20283;-57
2023/10/20 03:58:20;;;;;;;6.75;2.15;;;15.10;99.90;;;;;;7296939;32;20178;-57
2023/10/20 04:02:22;;;;;;;3.30;1.73;;;15.10;99.90;;;;;;7300325;32;20175;-57
2023/10/20 04:06:24;;;;;;;1.90;1.70;;;15.10;99.90;;;;;;7299889;32;20111;-56
2023/10/20 04:10:26;;;;;;;2.67;1.95;;;15.00;99.90;;;;;;7300626;32;20145;-56
2023/10/20 04:14:28;;;;;;;5.97;2.65;;;15.00;99.90;;;;;;7301484;32;20096;-56
2023/10/20 04:18:32;;;;;;;5.82;2.65;;;15.00;99.90;;;;;;7297284;32;20565;-57
2023/10/20 04:22:34;;;;;;;4.10;2.10;;;15.00;99.90;;;;;;7303173;32;20099;-57
2023/10/20 04:26:42;;;;;;;4.12;1.95;;;15.00;99.90;;;;;;7296393;32;20966;-56
2023/10/20 04:44:57;;;;;;;3.58;1.67;;;15.00;99.90;;;;;;7297198;32;20700;-56
2023/10/20 04:57:23;;;;;;;2.17;1.40;;;15.10;99.90;;;;;;7296524;32;20311;-56
2023/10/20 05:01:27;;;;;;;3.00;1.42;;;15.10;99.90;;;;;;7298492;32;20107;-57
2023/10/20 05:05:42;;;;;;;3.65;1.85;;;15.00;99.90;;;;;;7296251;32;20204;-56
2023/10/20 05:09:50;;;;;;;1.60;1.35;;;15.00;99.90;;;;;;7298150;32;21405;-56
2023/10/20 05:13:51;;;;;;;;;;;15.00;99.90;;;;;;7297883;32;20581;-55
2023/10/20 05:17:53;;;;;;;2.55;1.83;;;15.00;99.90;;;;;;7299464;32;20153;-56
2023/10/20 05:21:55;;;;;;;3.50;1.90;;;14.90;99.90;;;;;;7299722;32;20498;-57
2023/10/20 05:25:57;;;;;;;3.12;1.75;;;14.80;99.90;;;;;;7296618;32;20127;-56
2023/10/20 05:29:59;;;;;;;1.98;1.55;;;14.80;99.90;;;;;;7295532;32;20179;-56
2023/10/20 05:34:01;;;;;;;4.37;1.70;;;14.80;99.90;;;;;;7303493;32;20167;-56
2023/10/20 05:38:03;;;;;;;2.78;1.60;;;14.80;99.90;;;;;;7300408;32;20258;-56
2023/10/20 05:42:05;;;;;;;2.37;1.60;;;14.80;99.90;;;;;;7304970;32;20124;-56
2023/10/20 05:46:14;;;;;;;4.45;2.50;;;14.70;99.90;;;;;;7304338;32;20566;-57
2023/10/20 05:50:16;;;;;;;4.55;3.08;;;14.60;99.90;;;;;;7303316;32;20213;-56
2023/10/20 05:54:18;;;;;;;4.40;3.75;;;14.50;99.90;;;;;;7301162;32;20486;-56
2023/10/20 05:58:20;;;;;;;7.35;3.80;;;14.40;99.90;;;;;;7301908;32;20108;-56
2023/10/20 06:02:22;;;;;;;5.03;3.92;;;14.30;99.90;;;;;;7292596;32;20233;-56
2023/10/20 06:06:24;;;;;;;6.43;4.90;;;14.20;99.90;;;;;;7300024;32;20554;-57
2023/10/20 06:10:26;;;;;;;6.60;4.87;;;14.10;99.90;;;;;;7300900;32;20122;-57
2023/10/20 06:14:27;;;;;;;8.10;5.82;;;14.00;99.90;;;;;;7302013;32;20393;-56
2023/10/20 06:18:29;;;;;;;7.37;5.32;;;13.90;99.90;;;;;;7298425;32;20138;-56
2023/10/20 06:22:37;;;;;;;8.05;6.07;;;13.90;99.90;;;;;;7293077;32;20182;-56
2023/10/20 06:26:39;;;;;;;8.55;6.60;;;13.90;99.90;;;;;;7299494;32;20107;-56
2023/10/20 06:30:44;;;;;;;9.35;7.60;;;13.90;99.90;;;;;;7298636;32;20123;-56
2023/10/20 06:34:47;;;;;;;12.63;8.90;;;13.90;99.90;;;;;;7293507;32;20342;-56
2023/10/20 06:38:49;;;;;;;15.20;9.25;;;13.80;99.90;;;;;;7295261;32;20180;-57
2023/10/20 06:42:51;;;;;;;11.88;8.68;;;13.80;99.90;;;;;;7294818;32;20537;-56
2023/10/20 06:46:52;;;;;;;12.68;9.63;;;13.80;99.90;;;;;;7298804;32;20611;-55
2023/10/20 06:50:55;;;;;;;12.63;9.43;;;13.60;99.90;;;;;;7294405;32;20204;-57
2023/10/20 06:54:56;;;;;;;13.00;9.32;;;13.60;99.90;;;;;;7288404;32;20263;-57
2023/10/20 06:59:18;;;;;;;11.18;8.32;;;13.60;99.90;;;;;;7295799;32;20114;-56
2023/10/20 07:03:20;;;;;;;12.95;8.70;;;13.70;99.90;;;;;;7296490;32;20111;-57
2023/10/20 07:07:22;;;;;;;12.70;8.13;;;13.60;99.90;;;;;;7292547;32;20479;-57
2023/10/20 07:11:27;;;;;;;10.85;8.48;;;13.60;99.90;;;;;;7299801;32;20462;-56
2023/10/20 07:15:29;;;;;;;10.55;7.68;;;13.60;99.90;;;;;;7296500;32;20334;-62
2023/10/20 07:19:31;;;;;;;10.85;8.18;;;13.70;99.90;;;;;;7290002;32;20115;-63
2023/10/20 07:23:32;;;;;;;9.93;8.05;;;13.70;99.90;;;;;;7291138;32;20162;-63
2023/10/20 07:27:34;;;;;;;8.75;7.10;;;13.70;99.90;;;;;;7298328;32;20103;-60
2023/10/20 07:31:39;;;;;;;9.73;7.68;;;13.70;99.90;;;;;;7299058;32;20309;-60
2023/10/20 07:35:42;;;;;;;13.13;8.57;;;13.70;99.90;;;;;;7298183;32;20108;-56
2023/10/20 07:39:44;;;;;;;13.82;7.45;;;13.70;99.90;;;;;;7298005;32;20119;-56
2023/10/20 07:43:48;;;;;;;12.18;8.68;;;13.60;99.90;;;;;;7294766;32;20257;-56
2023/10/20 07:47:50;;;;;;;9.25;6.53;;;13.70;99.90;;;;;;7295102;32;20168;-56
2023/10/20 07:51:52;;;;;;;8.70;6.65;;;13.70;99.90;;;;;;7302158;32;20187;-57
2023/10/20 07:55:53;;;;;;;7.57;6.28;;;13.70;99.90;;;;;;7296603;32;20169;-56
2023/10/20 07:59:55;;;;;;;8.82;6.85;;;13.70;99.90;;;;;;7295038;32;20104;-56
2023/10/20 08:03:57;;;;;;;7.25;5.85;;;13.70;99.90;;;;;;7293049;32;20315;-57
2023/10/20 08:08:01;;;;;;;8.27;6.10;;;13.70;99.90;;;;;;7297141;32;20477;-57
2023/10/20 08:12:04;;;;;;;8.98;7.35;;;13.60;99.90;;;;;;7290077;32;20119;-58
2023/10/20 08:16:06;;;;;;;10.68;7.03;;;13.70;99.90;;;;;;7291149;32;20542;-57
2023/10/20 08:20:10;;;;;;;8.55;6.50;;;13.70;99.90;;;;;;7293218;32;20139;-58
2023/10/20 08:24:13;;;;;;;13.95;7.75;;;13.60;99.90;;;;;;7297572;32;20136;-57
2023/10/20 08:28:14;;;;;;;15.07;7.95;;;13.60;99.90;;;;;;7292536;32;20108;-57
2023/10/20 08:32:16;;;;;;;9.43;6.95;;;13.60;99.90;;;;;;7295991;32;20553;-56
2023/10/20 08:36:21;;;;;;;9.38;6.72;;;13.70;99.90;;;;;;7285206;32;20100;-56
2023/10/20 08:40:23;;;;;;;9.70;6.78;;;13.60;99.90;;;;;;7291231;32;20246;-55
2023/10/20 08:44:25;;;;;;;9.95;6.53;;;13.60;99.90;;;;;;7297446;32;20135;-56
2023/10/20 08:48:27;;;;;;;8.88;6.55;;;13.60;99.90;;;;;;7294491;32;20110;-57
2023/10/20 08:52:30;;;;;;;12.35;7.53;;;13.60;99.90;;;;;;7293753;32;20178;-56
2023/10/20 08:56:32;;;;;;;9.00;5.95;;;13.60;99.90;;;;;;7290125;32;20207;-57
2023/10/20 09:00:34;;;;;;;9.95;6.30;;;13.70;99.90;;;;;;7289660;32;20130;-56
2023/10/20 09:04:53;;;;;;;6.95;5.60;;;13.80;99.90;;;;;;7288704;32;20219;-57
2023/10/20 09:08:57;;;;;;;7.85;5.72;;;13.90;99.90;;;;;;7290695;32;20336;-57
2023/10/20 09:13:00;;;;;;;7.20;5.22;;;13.80;99.90;;;;;;7297915;32;20126;-56
2023/10/20 09:17:02;;;;;;;6.47;4.70;;;13.90;99.90;;;;;;7284925;32;20203;-58
2023/10/20 09:21:04;;;;;;;5.72;4.85;;;13.90;99.90;;;;;;7292865;32;20226;-57
2023/10/20 09:25:09;;;;;;;5.90;4.50;;;13.90;99.90;;;;;;7288595;32;20108;-57
2023/10/20 09:29:13;;;;;;;6.28;4.20;;;14.00;99.90;;;;;;7293745;32;20593;-57
2023/10/20 09:33:15;;;;;;;7.70;4.35;;;14.10;99.90;;;;;;7292166;32;20195;-57
2023/10/20 09:37:22;;;;;;;5.60;4.20;;;14.00;99.90;;;;;;7292637;32;20332;-57
2023/10/20 09:41:29;;;;;;;5.40;3.35;;;14.10;99.90;;;;;;7296399;32;20174;-59
2023/10/20 09:45:36;;;;;;;;;;;14.10;99.90;;;;;;7290059;32;20166;-56
2023/10/20 09:49:39;;;;;;;3.50;2.97;;;14.20;99.90;;;;;;7293117;32;20036;-57
2023/10/20 09:53:43;;;;;;;4.68;3.85;;;14.10;99.90;;;;;;7288948;32;20206;-57
2023/10/20 09:57:47;;;;;;;6.28;3.45;;;14.20;99.90;;;;;;7290507;32;20866;-57
2023/10/20 10:01:48;;;;;;;6.37;3.85;;;14.10;99.90;;;;;;7287925;32;20246;-55
2023/10/20 10:05:50;;;;;;;6.40;3.50;;;14.10;99.90;;;;;;7287434;32;20750;-56
2023/10/20 10:09:54;;;;;;;5.65;3.80;;;14.10;99.90;;;;;;7295710;32;20336;-57
2023/10/20 10:14:01;;;;;;;6.53;3.87;;;14.10;99.90;;;;;;7295263;32;20104;-57
2023/10/20 10:18:15;;;;;;;5.60;4.20;;;14.10;99.90;;;;;;7296883;32;20195;-56
2023/10/20 10:22:22;;;;;;;6.10;3.83;;;14.10;99.90;;;;;;7308400;32;20175;-56
2023/10/20 10:26:26;;;;;;;5.22;3.92;;;14.20;99.90;;;;;;7301795;32;20234;-56
2023/10/20 10:30:29;;;;;;;5.90;4.65;;;14.20;99.90;;;;;;7298291;32;20310;-56
2023/10/20 10:34:42;;;;;;;8.38;4.50;;;14.30;99.90;;;;;;7297093;32;20210;-56
2023/10/20 10:38:44;;;;;;;5.80;4.07;;;14.40;99.90;;;;;;7299306;32;20206;-56
2023/10/20 10:42:48;;;;;;;6.82;4.97;;;14.50;99.90;;;;;;7299125;32;20100;-57
2023/10/20 10:46:51;;;;;;;7.05;4.70;;;14.50;99.90;;;;;;7299029;32;20528;-56
2023/10/20 10:50:53;;;;;;;6.25;3.92;;;14.40;99.90;;;;;;7293761;32;20182;-56
2023/10/20 10:54:56;;;;;;;5.22;4.72;;;14.50;99.90;;;;;;7298834;32;20122;-55
2023/10/20 10:59:00;;;;;;;5.47;4.12;;;14.60;99.90;;;;;;7293261;32;20178;-55
2023/10/20 11:03:03;;;;;;;5.50;4.00;;;14.60;99.90;;;;;;7299086;32;20123;-56
2023/10/20 11:07:08;;;;;;;5.70;3.87;;;14.60;99.90;;;;;;7296977;32;20218;-57
2023/10/20 11:11:12;;;;;;;5.18;3.78;;;14.50;99.90;;;;;;7292356;32;20762;-57
2023/10/20 11:15:14;;;;;;;6.85;4.87;;;14.50;99.90;;;;;;7297357;32;20217;-56
2023/10/20 11:19:17;;;;;;;5.75;4.57;;;14.60;99.90;;;;;;7292597;32;20126;-57
2023/10/20 11:23:29;;;;;;;4.37;3.67;;;14.60;99.90;;;;;;7294075;32;20103;-56
2023/10/20 11:27:42;;;;;;;6.18;3.92;;;14.60;99.90;;;;;;7296546;32;20119;-56
2023/10/20 11:31:45;;;;;;;4.60;3.55;;;14.50;99.90;;;;;;7297450;32;20169;-57
2023/10/20 11:35:46;;;;;;;3.87;3.45;;;14.60;99.90;;;;;;7299316;32;20179;-57
2023/10/20 11:39:48;;;;;;;4.68;3.72;;;14.40;99.90;;;;;;7296442;32;20100;-57
2023/10/20 11:43:50;;;;;;;6.15;4.93;;;14.40;99.90;;;;;;7297024;32;20126;-56
2023/10/20 11:47:52;;;;;;;7.00;3.75;;;14.30;99.90;;;;;;7292098;32;20210;-56
2023/10/20 11:51:55;;;;;;;7.55;3.62;;;14.20;99.90;;;;;;7293373;32;20095;-55
2023/10/20 11:55:56;;;;;;;5.45;4.25;;;14.20;99.90;;;;;;7293079;32;20142;-56
2023/10/20 11:59:58;;;;;;;4.95;3.55;;;14.20;99.90;;;;;;7294415;32;20246;-56
2023/10/20 12:04:00;;;;;;;4.45;3.70;;;14.10;99.90;;;;;;7293901;32;20103;-56
2023/10/20 12:08:04;;;;;;;5.97;3.87;;;14.00;99.90;;;;;;7298690;32;20103;-56
2023/10/20 12:12:06;;;;;;;6.82;3.80;;;14.00;99.90;;;;;;7299375;32;20126;-58
2023/10/20 12:16:08;;;;;;;5.90;4.03;;;14.00;99.90;;;;;;7294312;32;20122;-57
2023/10/20 12:20:10;;;;;;;5.95;4.50;;;13.90;99.90;;;;;;7295347;32;20246;-56
2023/10/20 12:24:12;;;;;;;6.20;4.82;;;13.90;99.90;;;;;;7296941;32;20585;-57
2023/10/20 12:28:13;;;;;;;5.57;4.95;;;13.90;99.90;;;;;;7292115;32;21184;-57
2023/10/20 12:32:15;;;;;;;7.28;4.50;;;13.90;99.90;;;;;;7292424;32;20100;-57
2023/10/20 12:36:17;;;;;;;8.73;4.75;;;13.90;99.90;;;;;;7293840;32;20238;-58
2023/10/20 12:40:19;;;;;;;8.25;4.97;;;13.80;99.90;;;;;;7296897;32;20325;-58
2023/10/20 12:44:22;;;;;;;6.22;5.62;;;13.80;99.90;;;;;;7294501;32;20191;-57
2023/10/20 12:48:24;;;;;;;7.55;5.93;;;13.90;99.90;;;;;;7292661;32;20521;-57
2023/10/20 12:52:26;;;;;;;6.07;5.18;;;13.90;99.90;;;;;;7295361;32;20092;-56
2023/10/20 12:56:28;;;;;;;7.47;5.75;;;13.90;99.90;;;;;;7294831;32;20275;-57
2023/10/20 13:00:30;;;;;;;7.50;6.03;;;13.90;99.90;;;;;;7296166;32;20235;-57
2023/10/20 13:04:32;;;;;;;11.35;8.00;;;13.90;99.90;;;;;;7297746;32;20157;-57
2023/10/20 13:08:34;;;;;;;12.23;8.32;;;14.00;99.90;;;;;;7295183;32;20096;-58
2023/10/20 13:12:36;;;;;;;10.20;6.35;;;14.00;99.90;;;;;;7292510;32;20446;-58
2023/10/20 13:16:39;;;;;;;6.57;5.85;;;14.20;99.90;;;;;;7293189;32;20206;-57
2023/10/20 13:20:42;;;;;;;9.30;6.28;;;14.20;99.90;;;;;;7286668;32;20230;-57
2023/10/20 13:24:44;;;;;;;7.72;6.55;;;14.30;99.90;;;;;;7292920;32;20198;-57
2023/10/20 13:28:46;;;;;;;9.07;6.43;;;14.40;99.90;;;;;;7290282;32;20140;-59
2023/10/20 13:32:48;;;;;;;6.85;5.45;;;14.40;99.90;;;;;;7298217;32;20125;-58
2023/10/20 13:36:50;;;;;;;6.75;5.53;;;14.60;99.90;;;;;;7296707;32;20214;-57
2023/10/20 13:40:51;;;;;;;7.28;5.35;;;14.60;99.90;;;;;;7294160;32;20135;-64
2023/10/20 13:44:53;;;;;;;6.00;5.12;;;14.70;99.90;;;;;;7294851;32;20099;-64
2023/10/20 13:48:55;;;;;;;6.97;5.30;;;14.70;99.90;;;;;;7293809;32;20197;-64
2023/10/20 13:52:57;;;;;;;7.18;5.28;;;14.70;99.90;;;;;;7297154;32;20940;-58
2023/10/20 13:56:59;;;;;;;6.68;5.90;;;14.90;99.90;;;;;;7297850;32;20607;-58
2023/10/20 14:01:01;;;;;;;7.70;6.03;;;14.90;99.90;;;;;;7301126;32;20478;-56
2023/10/20 14:05:05;;;;;;;8.52;6.10;;;14.90;99.90;;;;;;7302277;32;20492;-57
2023/10/20 14:09:09;;;;;;;6.57;5.22;;;14.80;99.90;;;;;;7302271;32;20556;-58
2023/10/20 14:13:11;;;;;;;6.28;5.65;;;14.90;99.90;;;;;;7306686;32;20128;-57
2023/10/20 14:17:13;;;;;;;5.62;4.78;;;14.90;99.90;;;;;;7303872;32;20119;-58
2023/10/20 14:21:14;;;;;;;6.87;4.90;;;14.90;99.90;;;;;;7298772;32;20238;-57
2023/10/20 14:25:17;;;;;;;7.35;5.20;;;14.90;99.90;;;;;;7300457;32;20137;-57
2023/10/20 14:29:18;;;;;;;7.45;5.78;;;14.80;99.90;;;;;;7304558;32;20199;-58
2023/10/20 14:33:20;;;;;;;6.72;4.75;;;14.90;99.90;;;;;;7296653;32;20303;-57
2023/10/20 14:37:22;;;;;;;5.72;3.40;;;14.80;99.90;;;;;;7299618;32;20108;-57
2023/10/20 14:41:24;;;;;;;4.32;2.70;;;14.70;99.90;;;;;;7305092;32;20214;-56
2023/10/20 14:45:26;;;;;;;2.85;2.35;;;14.70;99.90;;;;;;7299988;32;20538;-58
2023/10/20 14:49:27;;;;;;;5.28;1.85;;;14.70;99.90;;;;;;7295425;32;20139;-58
2023/10/20 14:53:29;;;;;;;2.00;1.20;;;14.60;99.90;;;;;;7302423;32;20092;-57
2023/10/20 14:57:31;;;;;;;1.05;0.82;;;14.50;99.90;;;;;;7303396;32;20805;-58
2023/10/20 15:01:36;;;;;;;1.33;0.80;;;14.50;99.90;;;;;;7294434;32;20108;-57
2023/10/20 15:05:38;;;;;;;1.48;0.80;;;14.50;99.90;;;;;;7292892;32;20127;-58
2023/10/20 15:09:40;;;;;;;1.33;0.80;;;14.50;99.90;;;;;;7300525;32;20592;-57
2023/10/20 15:13:43;;;;;;;0.88;0.80;;;14.40;99.90;;;;;;7301080;32;20262;-57
2023/10/20 15:17:45;;;;;;;1.95;1.10;;;14.40;99.90;;;;;;7298674;32;20115;-57
2023/10/20 15:21:47;;;;;;;2.75;1.33;;;14.30;99.90;;;;;;7299769;32;20096;-58
2023/10/20 15:25:49;;;;;;;1.05;0.80;;;14.20;99.90;;;;;;7298905;32;21140;-58
2023/10/20 15:29:50;;;;;;;3.80;0.90;;;14.10;99.90;;;;;;7292498;32;20538;-58
2023/10/20 15:33:52;;;;;;;1.35;1.00;;;14.00;99.90;;;;;;7295132;32;20135;-59
2023/10/20 15:37:54;;;;;;;1.80;1.02;;;14.00;99.90;;;;;;7293510;32;20124;-58
2023/10/20 15:41:56;;;;;;;3.28;1.30;;;14.00;99.90;;;;;;7295164;32;20228;-58
2023/10/20 15:45:59;;;;;;;2.90;1.40;;;13.90;99.90;;;;;;7287981;32;20298;-57
2023/10/20 15:50:01;;;;;;;1.70;1.10;;;13.90;99.90;;;;;;7298969;32;20153;-57
2023/10/20 15:54:03;;;;;;;2.42;1.40;;;14.00;99.90;;;;;;7291166;32;20115;-57
2023/10/20 15:58:05;;;;;;;3.17;1.10;;;13.90;99.90;;;;;;7294702;32;20115;-57
2023/10/20 16:02:06;;;;;;;2.40;1.25;;;13.90;99.90;;;;;;7298192;32;20613;-58
2023/10/20 16:06:11;;;;;;;2.40;1.42;;;13.80;99.90;;;;;;7298084;32;20765;-58
2023/10/20 16:10:13;;;;;;;1.83;1.40;;;13.80;99.90;;;;;;7298904;32;20213;-57
2023/10/20 16:14:15;;;;;;;2.08;1.40;;;13.80;99.90;;;;;;7294722;32;20126;-57
2023/10/20 16:18:16;;;;;;;2.55;1.50;;;13.80;99.90;;;;;;7297551;32;20565;-56
2023/10/20 16:22:19;;;;;;;1.52;1.05;;;13.80;99.90;;;;;;7297517;32;20100;-56
2023/10/20 16:26:21;;;;;;;4.93;1.60;;;13.80;99.90;;;;;;7297818;32;20609;-57
2023/10/20 16:30:22;;;;;;;3.22;1.65;;;13.80;99.90;;;;;;7299143;32;20108;-56
2023/10/20 16:34:26;;;;;;;2.60;1.73;;;13.70;99.90;;;;;;7292084;32;20486;-56
2023/10/20 16:38:28;;;;;;;3.95;1.70;;;13.60;99.90;;;;;;7296930;32;20222;-56
2023/10/20 16:42:30;;;;;;;2.42;1.48;;;13.70;99.90;;;;;;7300904;32;20107;-57
2023/10/20 16:46:32;;;;;;;2.08;1.45;;;13.60;99.90;;;;;;7302205;32;20196;-56
2023/10/20 16:50:34;;;;;;;2.55;1.50;;;13.60;99.90;;;;;;7299058;32;20169;-58
2023/10/20 16:54:35;;;;;;;4.45;2.03;;;13.60;99.90;;;;;;7295875;32;20105;-57
2023/10/20 16:58:37;;;;;;;2.40;1.70;;;13.60;99.90;;;;;;7303636;32;20214;-57
2023/10/20 17:02:39;;;;;;;3.05;1.95;;;13.50;99.90;;;;;;7302637;32;20195;-56
2023/10/20 17:06:41;;;;;;;7.00;2.65;;;13.50;99.90;;;;;;7301142;32;20530;-56
2023/10/20 17:10:43;;;;;;;5.18;2.22;;;13.50;99.90;;;;;;7291863;32;20167;-57
2023/10/20 17:14:45;;;;;;;2.95;2.12;;;13.50;99.90;;;;;;7295087;32;20123;-56
2023/10/20 17:18:47;;;;;;;2.00;1.42;;;13.60;99.90;;;;;;7301043;32;20100;-57
2023/10/20 17:22:49;;;;;;;2.95;1.70;;;13.50;99.90;;;;;;7302947;32;20214;-56
2023/10/20 17:26:50;;;;;;;5.95;1.95;;;13.50;99.90;;;;;;7298088;32;20110;-57
2023/10/20 17:30:57;;;;;;;4.12;1.67;;;13.40;99.90;;;;;;7304368;32;20099;-57
2023/10/20 17:34:59;;;;;;;3.62;1.40;;;13.50;99.90;;;;;;7304226;32;20191;-56
2023/10/20 17:39:02;;;;;;;1.37;1.12;;;13.40;99.90;;;;;;7310473;32;20168;-56
2023/10/20 17:43:04;;;;;;;4.55;1.55;;;13.40;99.90;;;;;;7309346;32;20127;-56
2023/10/20 17:47:05;;;;;;;2.62;1.35;;;13.40;99.90;;;;;;7308505;32;20100;-57
2023/10/20 17:51:07;;;;;;;2.05;1.30;;;13.40;99.90;;;;;;7306179;32;20107;-57
2023/10/20 17:55:09;;;;;;;4.60;1.27;;;13.30;99.90;;;;;;7305941;32;20197;-57
2023/10/20 17:59:11;;;;;;;1.90;1.30;;;13.30;99.90;;;;;;7307833;32;20240;-57
2023/10/20 18:03:13;;;;;;;3.10;1.25;;;13.20;99.90;;;;;;7311208;32;20170;-57
2023/10/20 18:07:14;;;;;;;5.22;1.85;;;13.10;99.90;;;;;;7304090;32;20182;-56
2023/10/20 18:11:17;;;;;;;3.67;1.60;;;13.10;99.90;;;;;;7308692;32;20204;-58
2023/10/20 18:15:22;;;;;;;3.80;2.10;;;13.10;99.90;;;;;;7311833;32;20124;-56
2023/10/20 18:19:24;;;;;;;1.92;1.55;;;13.10;99.90;;;;;;7308975;32;20515;-56
2023/10/20 18:23:26;;;;;;;8.32;2.03;;;13.00;99.90;;;;;;7310334;32;20192;-58
2023/10/20 18:27:27;;;;;;;3.28;1.58;;;13.00;99.90;;;;;;7310618;32;20156;-57
2023/10/20 18:31:29;;;;;;;2.67;1.60;;;13.00;99.90;;;;;;7308928;32;20109;-56
2023/10/20 18:35:34;;;;;;;6.40;1.62;;;13.00;99.90;;;;;;7310898;32;20183;-56
2023/10/20 18:39:36;;;;;;;5.90;1.73;;;12.90;99.90;;;;;;7303535;32;20638;-56
2023/10/20 18:43:38;;;;;;;4.43;1.80;;;12.80;99.90;;;;;;7300513;32;20325;-56
2023/10/20 18:47:39;;;;;;;2.90;2.03;;;12.80;99.90;;;;;;7300823;32;20807;-56
2023/10/20 18:51:41;;;;;;;2.90;2.40;;;12.80;99.90;;;;;;7302756;32;20187;-56
2023/10/20 18:55:44;;;;;;;3.33;2.10;;;12.70;99.90;;;;;;7299434;32;20131;-57
2023/10/20 18:59:46;;;;;;;4.57;2.33;;;12.70;99.90;;;;;;7308161;32;20123;-57
2023/10/20 19:03:47;;;;;;;6.40;2.30;;;12.60;99.90;;;;;;7305764;32;20242;-57
2023/10/20 19:07:49;;;;;;;4.30;2.53;;;12.60;99.90;;;;;;7306049;32;20583;-56
2023/10/20 19:11:51;;;;;;;4.82;2.28;;;12.50;99.90;;;;;;7302487;32;20152;-56
2023/10/20 19:15:55;;;;;;;3.17;2.47;;;12.60;99.90;;;;;;7306345;32;20096;-56
2023/10/20 19:19:58;;;;;;;2.83;1.80;;;12.60;99.90;;;;;;7304710;32;20105;-57
2023/10/20 19:23:59;;;;;;;2.58;2.12;;;12.50;99.90;;;;;;7301849;32;20254;-56
2023/10/20 19:28:01;;;;;;;7.07;2.62;;;12.40;99.90;;;;;;7297610;32;20121;-57
2023/10/20 19:32:05;;;;;;;2.85;1.50;;;12.50;99.90;;;;;;7297928;32;20100;-56
2023/10/20 19:36:08;;;;;;;2.72;1.80;;;12.60;99.90;;;;;;7305682;32;20387;-57
2023/10/20 19:40:10;;;;;;;6.65;1.73;;;12.40;99.90;;;;;;7302043;32;20130;-57
2023/10/20 19:44:12;;;;;;;5.10;1.80;;;12.40;99.90;;;;;;7297420;32;20126;-56
2023/10/20 19:48:14;;;;;;;3.22;1.67;;;12.40;99.90;;;;;;7301267;32;20111;-57
2023/10/20 19:52:16;;;;;;;3.72;1.52;;;12.40;99.90;;;;;;7300694;32;20122;-58
2023/10/20 19:56:18;;;;;;;2.78;1.62;;;12.40;99.90;;;;;;7298708;32;20195;-58
2023/10/20 20:00:19;;;;;;;3.10;1.60;;;12.40;99.90;;;;;;7305344;32;20729;-57
2023/10/20 20:04:22;;;;;;;4.55;1.60;;;12.30;99.90;;;;;;7304745;32;20151;-57
2023/10/20 20:08:26;;;;;;;3.10;1.60;;;12.30;99.90;;;;;;7302566;32;20443;-55
2023/10/20 20:12:27;;;;;;;2.62;1.48;;;12.40;99.90;;;;;;7302550;32;20143;-56
2023/10/20 20:16:29;;;;;;;5.75;1.45;;;12.50;99.90;;;;;;7303547;32;20213;-54
2023/10/20 20:20:31;;;;;;;2.45;1.67;;;12.50;99.90;;;;;;7299235;32;20156;-56
2023/10/20 20:24:33;;;;;;;3.92;1.40;;;12.50;99.90;;;;;;7302079;32;20258;-56
2023/10/20 20:28:34;;;;;;;7.53;1.48;;;12.40;99.90;;;;;;7302024;32;20105;-56
2023/10/20 20:32:36;;;;;;;5.10;1.37;;;12.30;99.90;;;;;;7299519;32;20239;-58
2023/10/20 20:36:38;;;;;;;5.07;1.58;;;12.30;99.90;;;;;;7301638;32;20118;-56
2023/10/20 20:40:40;;;;;;;5.90;1.25;;;12.30;99.90;;;;;;7303910;32;20160;-56
2023/10/20 20:44:41;;;;;;;3.50;1.48;;;12.20;99.90;;;;;;7303799;32;20223;-56
2023/10/20 20:48:43;;;;;;;4.45;1.58;;;12.20;99.90;;;;;;7301468;32;20493;-56
2023/10/20 20:52:46;;;;;;;3.45;1.73;;;12.10;99.90;;;;;;7303425;32;20611;-58
2023/10/20 20:56:48;;;;;;;6.10;1.60;;;12.10;99.90;;;;;;7303202;32;20155;-57
2023/10/20 21:00:50;;;;;;;5.30;1.80;;;12.10;99.90;;;;;;7296185;32;20979;-57
2023/10/20 21:04:52;;;;;;;5.90;1.65;;;12.10;99.90;;;;;;7296887;32;20265;-56
2023/10/20 21:08:54;;;;;;;6.40;1.70;;;12.10;99.90;;;;;;7299717;32;20172;-58
2023/10/20 21:12:57;;;;;;;4.12;1.17;;;12.10;99.90;;;;;;7293749;32;20103;-58
2023/10/20 21:16:59;;;;;;;3.85;1.60;;;12.10;99.90;;;;;;7296922;32;20393;-58
2023/10/20 21:21:06;;;;;;;4.60;1.75;;;12.10;99.90;;;;;;7295160;32;20167;-56